• Join FlightAware (Why Join?)
  • Login
  • US Flag 
04:53AM EST


 

Airport Tracker/Info


-or-


 

Live Flight TrackerFlight Track Log ✈ N717AN ✈ 22-Apr-2013 ✈ KDFW - EGLL / LHR

Flight Track Log - Related Links

Times and Time Zones

All times are in EDT time to prevent confusion due to time zone crossing. See the N717AN flight status page for this flight to view local times or setup timezone preferences in your user account.

Time Position Orientation Groundspeed Altitude Reporting Facility
EDT Latitude Longitude Course Direction KTS MPH feet Rate Location/Type
06:03PM 32.8500 -97.0333 57° Northeast 184 212 2,200  Level Dallas / Fort Worth TRACON
06:04PM 32.8140 -97.0090 40° Northeast 241 277 4,300 3,180 Climbing FlightAware
06:04PM 32.7833 -97.0000 157° South 243 280 5,700 3,720 Climbing Dallas / Fort Worth TRACON
06:05PM 32.7791 -96.8042 40° Northeast  Level FlightAware Approximate
06:05PM 32.7800 -96.9840 148° Southeast 258 297 6,500  Level FlightAware
06:05PM 32.7740 -96.9710 119° Southeast 279 321 6,800 2,400 Climbing FlightAware
06:05PM 32.7650 -96.9250 103° East 304 350 8,100 2,760 Climbing FlightAware
06:06PM 32.7670 -96.8730 87° East 317 365 9,600 2,520 Climbing FlightAware
06:08PM 32.8862 -96.6292 52° Northeast  Level FlightAware Approximate
06:09PM 32.9716 -96.4933 57° Northeast  Level FlightAware Approximate
06:10PM 33.0120 -96.4450 157° South 451 519 19,400  Level FlightAware
06:10PM 33.0620 -96.3640 54° Northeast 462 532 21,000 2,400 Climbing FlightAware
06:11PM 33.1050 -96.2590 64° Northeast 483 556 22,800 2,220 Climbing FlightAware
06:12PM 33.1350 -96.1590 70° East 494 568 24,200 2,100 Climbing FlightAware
06:13PM 33.1700 -96.0370 71° East 507 583 25,800 1,920 Climbing FlightAware
06:13PM 33.2010 -95.9310 71° East 516 594 27,000 1,800 Climbing FlightAware
06:14PM 33.2330 -95.8220 71° East 526 605 28,200 1,620 Climbing FlightAware
06:15PM 33.2670 -95.7040 71° East 537 618 29,300 1,680 Climbing FlightAware
06:15PM 33.3010 -95.5890 70° East 540 621 30,600 1,920 Climbing FlightAware
06:16PM 33.3330 -95.4790 71° East 537 618 31,900 1,860 Climbing FlightAware
06:17PM 33.3690 -95.3540 71° East 537 618 33,300 1,680 Climbing FlightAware
06:17PM 33.4020 -95.2400 71° East 536 617 34,300 1,200 Climbing FlightAware
06:18PM 33.4380 -95.1140 71° East 535 616 35,000 480 Climbing FlightAware
06:19PM 33.4700 -95.0020 71° East 534 615 35,000  Level FlightAware
06:20PM 33.5020 -94.8890 71° East 534 615 35,000  Level FlightAware
06:20PM 33.5290 -94.7940 71° East 534 615 35,000  Level FlightAware
06:21PM 33.5570 -94.6980 71° East 534 615 35,000  Level FlightAware
06:22PM 33.5840 -94.6030 71° East 534 615 35,000  Level FlightAware
06:22PM 33.6110 -94.5080 71° East 534 615 35,000  Level FlightAware
06:23PM 33.6630 -94.3150 72° East 534 615 35,000  Level FlightAware
06:24PM 33.6940 -94.2050 71° East 534 615 35,000  Level FlightAware
06:24PM 33.7220 -94.1090 71° East 534 615 35,000  Level FlightAware
06:28PM 34.0140 -93.5640 57° Northeast 519 597 35,000  Level FlightAware
06:29PM 34.0560 -93.4790 59° Northeast 519 597 35,000  Level FlightAware
06:29PM 34.0980 -93.3950 59° Northeast 519 597 35,000  Level FlightAware
06:30PM 34.1500 -93.2890 59° Northeast 519 597 35,000  Level FlightAware
06:31PM 34.1920 -93.2040 59° Northeast 519 597 35,000  Level FlightAware
06:32PM 34.2340 -93.1200 59° Northeast 519 597 35,000  Level FlightAware
06:32PM 34.2760 -93.0350 59° Northeast 519 597 35,000  Level FlightAware
06:37PM 34.5500 -92.4840 59° Northeast 519 597 35,000  Level FlightAware
06:37PM 34.7175 -92.1231 59° Northeast 509 586 35,000  Level Memphis Center
06:38PM 34.8067 -92.0036 48° Northeast 497 572 35,000  Level Memphis Center
06:39PM 34.8981 -91.8789 48° Northeast 490 564 35,000  Level Memphis Center
06:40PM 34.9892 -91.7511 49° Northeast 490 564 35,000  Level Memphis Center
06:41PM 35.0803 -91.6258 48° Northeast 490 564 35,000  Level Memphis Center
06:42PM 35.1711 -91.5003 48° Northeast 490 564 35,000  Level Memphis Center
06:43PM 35.2597 -91.3767 49° Northeast 485 558 35,000  Level Memphis Center
06:44PM 35.3525 -91.2481 48° Northeast 485 558 35,000  Level Memphis Center
06:45PM 35.4472 -91.1217 47° Northeast 485 558 35,000  Level Memphis Center
06:46PM 35.5378 -90.9897 50° Northeast 496 571 35,000  Level Memphis Center
06:47PM 35.6322 -90.8578 49° Northeast 508 585 35,000  Level Memphis Center
06:48PM 35.7161 -90.7303 51° Northeast 496 571 35,000  Level Memphis Center
06:49PM 35.8081 -90.6003 49° Northeast 496 571 35,000  Level Memphis Center
06:50PM 35.8981 -90.4697 50° Northeast 496 571 35,000  Level Memphis Center
06:51PM 35.9897 -90.3392 49° Northeast 501 577 35,000  Level Memphis Center
06:52PM 36.0814 -90.2056 50° Northeast 501 577 35,000  Level Memphis Center
06:53PM 36.1728 -90.0717 50° Northeast 506 582 35,000  Level Memphis Center
06:54PM 36.2642 -89.9425 49° Northeast 506 582 35,000  Level Memphis Center
06:55PM 36.3556 -89.8106 49° Northeast 506 582 35,000  Level Memphis Center
07:01PM 36.8530 -89.0700 49° Northeast 494 568 35,000  Level FlightAware
07:02PM 36.9130 -88.9810 50° Northeast 494 568 35,000  Level FlightAware
07:02PM 36.9630 -88.9060 50° Northeast 494 568 35,000  Level FlightAware
07:03PM 37.0130 -88.8320 50° Northeast 494 568 35,000  Level FlightAware
07:04PM 37.0750 -88.6660 65° Northeast 500 575 35,000  Level FlightAware
07:05PM 37.1220 -88.5450 64° Northeast 498 573 35,000  Level FlightAware
07:05PM 37.1620 -88.4410 64° Northeast 497 572 35,000  Level FlightAware
07:06PM 37.2070 -88.3250 64° Northeast 496 571 35,000  Level FlightAware
07:07PM 37.2440 -88.2270 65° Northeast 498 573 35,000  Level FlightAware
07:07PM 37.2850 -88.1200 64° Northeast 501 577 35,000  Level FlightAware
07:08PM 37.3250 -88.0150 64° Northeast 504 580 35,000  Level FlightAware
07:09PM 37.3710 -87.8930 65° Northeast 506 582 35,000  Level FlightAware
07:09PM 37.4110 -87.7870 65° Northeast 506 582 35,000  Level FlightAware
07:10PM 37.4570 -87.6670 64° Northeast 503 579 35,000  Level FlightAware
07:11PM 37.4950 -87.5640 65° Northeast 503 579 35,000  Level FlightAware
07:12PM 37.5410 -87.4410 65° Northeast 503 579 35,000  Level FlightAware
07:12PM 37.5810 -87.3350 65° Northeast 504 580 35,000  Level FlightAware
07:13PM 37.6200 -87.2290 65° Northeast 503 579 35,000  Level FlightAware
07:14PM 37.6630 -87.1120 65° Northeast 500 575 35,000  Level FlightAware
07:14PM 37.7020 -87.0060 65° Northeast 499 574 35,000  Level FlightAware
07:15PM 37.7460 -86.8870 65° Northeast 500 575 35,000  Level FlightAware
07:16PM 37.7850 -86.7800 65° Northeast 502 578 35,000  Level FlightAware
07:17PM 37.8270 -86.6650 65° Northeast 501 577 35,000  Level FlightAware
07:17PM 37.8610 -86.5710 65° Northeast 499 574 35,000  Level FlightAware
07:18PM 37.9130 -86.4280 65° Northeast 499 574 35,000  Level FlightAware
07:19PM 37.9570 -86.3060 65° Northeast 502 578 35,000  Level FlightAware
07:20PM 37.9990 -86.1860 66° East 504 580 35,000  Level FlightAware
07:20PM 38.0390 -86.0750 65° Northeast 506 582 35,000  Level FlightAware
07:21PM 38.0830 -85.9510 66° East 504 580 35,000  Level FlightAware
07:22PM 38.1220 -85.8410 66° East 506 582 35,000  Level FlightAware
07:22PM 38.1640 -85.7230 66° East 508 585 35,000  Level FlightAware
07:23PM 38.2010 -85.6160 66° East 506 582 35,000  Level FlightAware
07:24PM 38.2400 -85.5060 66° East 504 580 35,000  Level FlightAware
07:24PM 38.2830 -85.3830 66° East 505 581 35,000  Level FlightAware
07:25PM 38.3210 -85.2740 66° East 505 581 35,000  Level FlightAware
07:26PM 38.3590 -85.1630 66° East 505 581 35,000  Level FlightAware
07:27PM 38.4000 -85.0460 66° East 505 581 35,000  Level FlightAware
07:27PM 38.4380 -84.9350 66° East 506 582 35,000  Level FlightAware
07:28PM 38.4800 -84.8110 67° East 509 586 35,000  Level FlightAware
07:29PM 38.5180 -84.7000 66° East 510 587 35,000  Level FlightAware
07:30PM 38.5680 -84.5530 66° East 512 589 35,000  Level FlightAware
07:30PM 38.6010 -84.4590 66° East 512 589 35,000  Level FlightAware
07:31PM 38.6340 -84.3650 66° East 512 589 35,000  Level FlightAware
07:32PM 38.6750 -84.2470 66° East 512 589 35,000  Level FlightAware
07:32PM 38.7080 -84.1530 66° East 512 589 35,000  Level FlightAware
07:33PM 38.7400 -84.0580 67° East 512 589 35,000  Level FlightAware
07:34PM 38.8380 -83.8520 59° Northeast 518 596 35,000  Level FlightAware
07:34PM 38.8820 -83.7440 62° Northeast 518 596 35,000  Level FlightAware
07:35PM 38.9420 -83.5970 62° Northeast 518 596 35,000  Level FlightAware
07:36PM 38.9940 -83.4690 62° Northeast 520 598 35,000  Level FlightAware
07:37PM 39.0380 -83.3590 63° Northeast 519 597 35,000  Level FlightAware
07:38PM 39.0850 -83.2410 63° Northeast 518 596 35,000  Level FlightAware
07:38PM 39.1290 -83.1300 63° Northeast 517 595 35,000  Level FlightAware
07:39PM 39.1720 -83.0230 63° Northeast 518 596 35,000  Level FlightAware
07:40PM 39.2210 -82.9000 63° Northeast 520 598 35,000  Level FlightAware
07:40PM 39.2660 -82.7860 63° Northeast 521 600 35,000  Level FlightAware
07:41PM 39.3160 -82.6580 63° Northeast 519 597 35,000  Level FlightAware
07:42PM 39.3590 -82.5490 63° Northeast 516 594 35,000  Level FlightAware
07:42PM 39.3980 -82.4500 63° Northeast 516 594 35,000  Level FlightAware
07:43PM 39.4480 -82.3190 64° Northeast 515 593 35,000  Level FlightAware
07:44PM 39.4920 -82.2070 63° Northeast 517 595 35,000  Level FlightAware
07:45PM 39.5400 -82.0840 63° Northeast 518 596 35,000  Level FlightAware
07:45PM 39.5830 -81.9710 64° Northeast 520 598 35,000  Level FlightAware
07:46PM 39.6260 -81.8590 63° Northeast 519 597 35,000  Level FlightAware
07:47PM 39.6690 -81.7450 64° Northeast 521 600 35,000  Level FlightAware
07:47PM 39.7170 -81.6200 63° Northeast 521 600 35,000  Level FlightAware
07:48PM 39.7580 -81.5110 64° Northeast 522 601 35,000  Level FlightAware
07:49PM 39.8070 -81.3810 64° Northeast 525 604 35,000  Level FlightAware
07:49PM 39.8500 -81.2670 64° Northeast 525 604 35,000  Level FlightAware
07:50PM 39.8930 -81.1520 64° Northeast 527 606 35,000  Level FlightAware
07:51PM 39.9400 -81.0260 64° Northeast 529 609 35,000  Level FlightAware
07:51PM 39.9820 -80.9130 64° Northeast 529 609 35,000  Level FlightAware
07:52PM 40.0240 -80.7990 64° Northeast 527 606 35,000  Level FlightAware
07:53PM 40.0670 -80.6690 67° East 526 605 35,000  Level FlightAware
07:54PM 40.1060 -80.5510 67° East 526 605 35,000  Level FlightAware
07:54PM 40.1500 -80.4160 67° East 529 609 35,000  Level FlightAware
07:55PM 40.1870 -80.3040 67° East 528 608 35,000  Level FlightAware
07:56PM 40.2270 -80.1810 67° East 526 605 35,000  Level FlightAware
07:56PM 40.2700 -80.0520 66° East 526 605 35,000  Level FlightAware
07:57PM 40.3080 -79.9350 67° East 527 606 35,000  Level FlightAware
07:58PM 40.3510 -79.8010 67° East 529 609 35,000  Level FlightAware
07:58PM 40.3900 -79.6810 67° East 529 609 35,000  Level FlightAware
07:59PM 40.4310 -79.5540 67° East 531 611 35,000  Level FlightAware
08:00PM 40.4690 -79.4350 67° East 532 612 35,000  Level FlightAware
08:01PM 40.5040 -79.3250 67° East 533 613 35,000  Level FlightAware
08:01PM 40.5440 -79.1980 67° East 532 612 35,000  Level FlightAware
08:02PM 40.5830 -79.0760 67° East 532 612 35,000  Level FlightAware
08:03PM 40.6250 -78.9410 68° East 535 616 35,000  Level FlightAware
08:03PM 40.6620 -78.8230 68° East 536 617 35,000  Level FlightAware
08:04PM 40.7030 -78.6890 68° East 539 620 35,000  Level FlightAware
08:05PM 40.7420 -78.5640 68° East 540 621 35,000  Level FlightAware
08:05PM 40.7810 -78.4380 68° East 540 621 35,000  Level FlightAware
08:06PM 40.8230 -78.3000 68° East 539 620 35,000  Level FlightAware
08:07PM 40.8590 -78.1830 68° East 538 619 35,000  Level FlightAware
08:08PM 40.9000 -78.0460 68° East 541 623 35,000  Level FlightAware
08:08PM 40.9470 -77.9240 63° Northeast 549 632 35,000  Level FlightAware
08:09PM 40.9980 -77.8090 60° Northeast 550 633 35,000  Level FlightAware
08:10PM 41.0550 -77.6810 59° Northeast 553 636 35,000  Level FlightAware
08:10PM 41.1080 -77.5620 59° Northeast 554 638 35,000  Level FlightAware
08:11PM 41.1710 -77.4330 57° Northeast 558 642 35,000  Level FlightAware
08:12PM 41.2400 -77.3350 47° Northeast 563 648 35,000  Level FlightAware
08:12PM 41.3020 -77.2220 54° Northeast 560 644 35,000  Level FlightAware
08:13PM 41.3778 -77.0615 58° Northeast 560 644 35,000  Level FlightAware ADS-B
08:14PM 41.4170 -76.9690 61° Northeast 559 643 35,000  Level FlightAware
08:14PM 41.4448 -76.8987 62° Northeast 560 644 35,000  Level FlightAware ADS-B
08:15PM 41.4818 -76.8057 62° Northeast 561 646 35,000  Level FlightAware ADS-B
08:15PM 41.5287 -76.6875 62° Northeast 562 647 35,000  Level FlightAware ADS-B
08:16PM 41.5770 -76.5658 62° Northeast 563 648 35,000  Level FlightAware ADS-B
08:17PM 41.6219 -76.4525 62° Northeast 565 650 35,000  Level FlightAware ADS-B
08:17PM 41.6620 -76.3510 62° Northeast 566 651 35,000  Level FlightAware ADS-B
08:18PM 41.7048 -76.2427 62° Northeast 568 654 35,000  Level FlightAware ADS-B
08:18PM 41.7430 -76.1454 62° Northeast 568 654 35,000  Level FlightAware ADS-B
08:19PM 41.7814 -76.0471 62° Northeast 568 654 35,000  Level FlightAware ADS-B
08:19PM 41.8190 -75.9504 62° Northeast 569 655 35,000  Level FlightAware ADS-B
08:20PM 41.8899 -75.7680 62° Northeast 569 655 35,000  Level FlightAware ADS-B
08:21PM 41.9170 -75.6980 62° Northeast 569 655 35,000  Level FlightAware
08:22PM 41.9930 -75.5020 62° Northeast 569 655 35,000  Level FlightAware
08:23PM 42.0750 -75.2960 62° Northeast 573 659 35,000  Level FlightAware
08:23PM 42.1045 -75.2303 59° Northeast 574 661 35,000  Level FlightAware ADS-B
08:24PM 42.1722 -75.0807 59° Northeast 576 663 35,000  Level FlightAware ADS-B
08:25PM 42.2450 -74.9220 58° Northeast 575 662 35,000  Level FlightAware
08:26PM 42.2980 -74.8040 59° Northeast 573 659 35,000  Level FlightAware
08:26PM 42.3660 -74.6540 58° Northeast 578 665 35,000  Level FlightAware
08:27PM 42.4240 -74.5290 58° Northeast 578 665 35,000  Level FlightAware
08:28PM 42.4840 -74.3950 59° Northeast 579 666 35,000  Level FlightAware
08:28PM 42.5470 -74.2530 59° Northeast 581 669 35,000  Level FlightAware
08:29PM 42.6040 -74.1270 58° Northeast 581 669 35,000  Level FlightAware
08:30PM 42.6590 -74.0030 59° Northeast 581 669 35,000  Level FlightAware
08:31PM 42.7190 -73.8680 59° Northeast 581 669 35,000  Level FlightAware
08:31PM 42.7710 -73.7370 62° Northeast 580 667 35,000  Level FlightAware
08:32PM 42.8270 -73.5860 63° Northeast 583 671 35,000  Level FlightAware
08:33PM 42.8720 -73.4530 65° Northeast 583 671 35,000  Level FlightAware
08:34PM 42.9310 -73.2750 66° East 584 672 35,000  Level FlightAware
08:34PM 42.9580 -73.1960 65° Northeast 585 673 35,000  Level FlightAware
08:35PM 43.0030 -73.0590 66° East 586 674 35,000  Level FlightAware
08:36PM 43.0760 -72.8400 65° Northeast 587 676 35,000  Level FlightAware
08:37PM 43.1410 -72.6450 65° Northeast 589 678 35,000  Level FlightAware
08:37PM 43.1830 -72.5160 66° East 589 678 35,000  Level FlightAware
08:38PM 43.2290 -72.3740 66° East 590 679 35,000  Level FlightAware
08:39PM 43.2790 -72.2230 65° Northeast 591 680 35,000  Level FlightAware
08:39PM 43.3230 -72.0850 66° East 592 681 35,000  Level FlightAware
08:40PM 43.3730 -71.9300 66° East 592 681 35,000  Level FlightAware
08:41PM 43.4170 -71.7910 66° East 594 684 35,000  Level FlightAware
08:41PM 43.4610 -71.6530 66° East 596 686 35,000  Level FlightAware
08:42PM 43.5090 -71.5010 66° East 597 687 35,000  Level FlightAware
08:43PM 43.5530 -71.3610 67° East 597 687 35,000  Level FlightAware
08:44PM 43.6040 -71.2000 66° East 598 688 35,000  Level FlightAware
08:44PM 43.6470 -71.0580 67° East 599 689 35,000  Level FlightAware
08:45PM 43.6900 -70.9200 67° East 598 688 35,000  Level FlightAware
08:46PM 43.7380 -70.7650 67° East 599 689 35,000  Level FlightAware
08:46PM 43.7820 -70.6220 67° East 599 689 35,000  Level FlightAware
08:47PM 43.8300 -70.4630 67° East 600 690 35,000  Level FlightAware
08:48PM 43.8720 -70.3210 68° East 601 692 35,000  Level FlightAware
08:48PM 43.9160 -70.1770 67° East 602 693 35,000  Level FlightAware
08:49PM 43.9580 -70.0350 68° East 603 694 35,000  Level FlightAware
08:50PM 44.0050 -69.8790 67° East 605 696 35,000  Level FlightAware
08:51PM 44.0540 -69.7110 68° East 606 697 35,000  Level FlightAware
08:51PM 44.0890 -69.5900 68° East 606 697 35,000  Level FlightAware
08:52PM 44.1370 -69.4280 68° East 607 699 35,000  Level FlightAware
08:53PM 44.2000 -69.2090 68° East 606 697 35,000  Level FlightAware
08:54PM 44.2400 -69.0690 68° East 607 699 35,000  Level FlightAware
08:54PM 44.2820 -68.9230 68° East 606 697 35,000  Level FlightAware
08:55PM 44.3290 -68.7570 68° East 606 697 35,000  Level FlightAware
08:56PM 44.3710 -68.6090 68° East 607 699 35,000  Level FlightAware
08:56PM 44.4120 -68.4610 69° East 607 699 35,000  Level FlightAware
08:57PM 44.4570 -68.2990 69° East 608 700 35,000  Level FlightAware
08:58PM 44.4970 -68.1550 69° East 607 699 35,000  Level FlightAware
08:58PM 44.5380 -68.0070 69° East 606 697 35,000  Level FlightAware
08:59PM 44.5830 -67.8410 69° East 606 697 35,000  Level FlightAware
09:00PM 44.6210 -67.7010 69° East 606 697 35,000  Level FlightAware
09:01PM 44.6670 -67.5310 69° East 605 696 35,000  Level FlightAware
09:01PM 44.7060 -67.3850 69° East 604 695 35,000  Level FlightAware
09:02PM 44.7450 -67.2390 69° East 604 695 35,000  Level FlightAware
09:03PM 44.7890 -67.0750 69° East 603 694 35,000  Level FlightAware
09:03PM 44.8280 -66.9230 70° East 607 699 35,000  Level FlightAware
09:04PM 44.8670 -66.7770 69° East 608 700 35,000  Level FlightAware
09:05PM 44.9070 -66.6210 70° East 608 700 35,000  Level FlightAware
09:05PM 44.9490 -66.4570 70° East 607 699 35,000  Level FlightAware
09:06PM 44.9910 -66.2930 70° East 607 699 35,000  Level FlightAware
09:07PM 45.0290 -66.1470 70° East 607 699 35,000  Level FlightAware
09:08PM 45.0720 -65.9760 70° East 606 697 35,000  Level FlightAware
09:08PM 45.1090 -65.8250 71° East 607 699 35,000  Level FlightAware
09:09PM 45.1510 -65.6600 70° East 607 699 35,000  Level FlightAware
09:10PM 45.1880 -65.5080 71° East 608 700 35,000  Level FlightAware
09:10PM 45.2250 -65.3600 70° East 608 700 35,000  Level FlightAware
09:11PM 45.2670 -65.1870 71° East 609 701 35,000  Level FlightAware
09:12PM 45.3030 -65.0350 71° East 608 700 35,000  Level FlightAware
09:13PM 45.3430 -64.8690 71° East 608 700 35,000  Level FlightAware
09:13PM 45.3800 -64.7170 71° East 607 699 35,000  Level FlightAware
09:14PM 45.4150 -64.5680 71° East 608 700 35,000  Level FlightAware
09:15PM 45.4560 -64.3950 71° East 608 700 35,000  Level FlightAware
09:15PM 45.5000 -64.2050 72° East 608 700 35,000  Level FlightAware
09:16PM 45.5360 -64.0560 71° East 608 700 35,000  Level FlightAware
09:17PM 45.5670 -63.9270 71° East 608 700 35,000  Level FlightAware
09:18PM 45.5980 -63.7980 71° East 608 700 35,000  Level FlightAware
09:18PM 45.6370 -63.6360 71° East 608 700 35,000  Level FlightAware
09:19PM 45.6680 -63.5070 71° East 608 700 35,000  Level FlightAware
09:20PM 45.6990 -63.3780 71° East 608 700 35,000  Level FlightAware
09:20PM 45.7300 -63.2480 71° East 608 700 35,000  Level FlightAware
09:21PM 45.7620 -63.1180 71° East 608 700 35,000  Level FlightAware
09:22PM 45.8000 -62.9560 71° East 608 700 35,000  Level FlightAware
09:23PM 45.8320 -62.8270 70° East 608 700 35,000  Level FlightAware
09:23PM 45.8630 -62.6970 71° East 608 700 35,000  Level FlightAware
09:24PM 45.8940 -62.5670 71° East 608 700 35,000  Level FlightAware
09:25PM 45.9250 -62.4370 71° East 608 700 35,000  Level FlightAware
09:25PM 45.9560 -62.3070 71° East 608 700 35,000  Level FlightAware
09:26PM 46.0350 -61.7670 78° East 610 702 35,000  Level FlightAware
09:27PM 46.0710 -61.5940 73° East 610 702 35,000  Level FlightAware
09:27PM 46.1020 -61.4400 74° East 609 701 35,000  Level FlightAware
09:28PM 46.1340 -61.2850 73° East 610 702 35,000  Level FlightAware
09:29PM 46.1700 -61.1040 74° East 608 700 35,000  Level FlightAware
09:30PM 46.2010 -60.9480 74° East 607 699 35,000  Level FlightAware
09:30PM 46.2320 -60.7920 74° East 606 697 35,000  Level FlightAware
09:31PM 46.2650 -60.6250 74° East 606 697 35,000  Level FlightAware
09:32PM 46.2950 -60.4680 74° East 605 696 35,000  Level FlightAware
09:32PM 46.3300 -60.2900 74° East 605 696 35,000  Level FlightAware
09:33PM 46.3600 -60.1320 75° East 605 696 35,000  Level FlightAware
09:34PM 46.3890 -59.9780 75° East 605 696 35,000  Level FlightAware
09:34PM 46.4210 -59.8060 75° East 604 695 35,000  Level FlightAware
09:35PM 46.4500 -59.6510 75° East 604 695 35,000  Level FlightAware
09:36PM 46.4830 -59.4700 75° East 604 695 35,000  Level FlightAware
09:37PM 46.5120 -59.3140 75° East 603 694 35,000  Level FlightAware
09:37PM 46.5400 -59.1590 75° East 604 695 35,000  Level FlightAware
09:38PM 46.5710 -58.9890 75° East 603 694 35,000  Level FlightAware
09:39PM 46.5990 -58.8310 75° East 603 694 35,000  Level FlightAware
09:39PM 46.6310 -58.6490 76° East 603 694 35,000  Level FlightAware
09:40PM 46.6580 -58.4940 76° East 603 694 35,000  Level FlightAware
09:41PM 46.6880 -58.3220 76° East 603 694 35,000  Level FlightAware
09:41PM 46.7150 -58.1640 76° East 603 694 35,000  Level FlightAware
09:42PM 46.7410 -58.0080 76° East 601 692 35,000  Level FlightAware
09:43PM 46.7720 -57.8250 76° East 600 690 35,000  Level FlightAware
09:44PM 46.8020 -57.6460 76° East 600 690 35,000  Level FlightAware
09:44PM 46.8250 -57.5120 76° East 600 690 35,000  Level FlightAware
09:45PM 46.8540 -57.3450 76° East 600 690 35,000  Level FlightAware
09:46PM 46.8760 -57.2110 76° East 600 690 35,000  Level FlightAware
09:47PM 46.8990 -57.0770 76° East 600 690 35,000  Level FlightAware
09:47PM 46.9220 -56.9430 76° East 600 690 35,000  Level FlightAware
09:48PM 46.9450 -56.8090 76° East 600 690 35,000  Level FlightAware
09:49PM 46.9730 -56.6410 76° East 600 690 35,000  Level FlightAware
09:49PM 46.9960 -56.5070 76° East 600 690 35,000  Level FlightAware
09:50PM 47.0190 -56.3730 76° East 600 690 35,000  Level FlightAware
09:51PM 47.0420 -56.2380 76° East 600 690 35,000  Level FlightAware
09:51PM 47.0650 -56.1040 76° East 600 690 35,000  Level FlightAware
09:52PM 47.0870 -55.9690 76° East 600 690 35,000  Level FlightAware
09:53PM 47.1160 -55.8010 76° East 600 690 35,000  Level FlightAware
09:55PM 47.2500 -55.1100 74° East 548 631 35,000  Level FlightAware
09:56PM 47.2710 -54.9860 76° East 549 632 35,000  Level FlightAware
09:56PM 47.3040 -54.7910 76° East 548 631 35,000  Level FlightAware
09:57PM 47.3280 -54.6500 76° East 547 629 35,000  Level FlightAware
09:58PM 47.3560 -54.4800 76° East 549 632 35,000  Level FlightAware
09:58PM 47.3790 -54.3410 76° East 551 634 35,000  Level FlightAware
09:59PM 47.4030 -54.1910 77° East 551 634 35,000  Level FlightAware
10:00PM 47.4290 -54.0300 77° East 550 633 35,000 300 Level FlightAware
10:01PM 47.4530 -53.8830 76° East 552 635 35,500 660 Climbing FlightAware
10:01PM 47.4790 -53.7160 77° East 548 631 36,000 300 Climbing FlightAware
10:02PM 47.5030 -53.5680 76° East 548 631 36,000  Level FlightAware
10:03PM 47.5270 -53.4090 77° East 549 632 36,000  Level FlightAware
10:03PM 47.5500 -53.2600 77° East 549 632 36,000  Level FlightAware
10:04PM 47.5720 -53.1200 77° East 548 631 36,000  Level FlightAware
10:05PM 47.5980 -52.9480 77° East 545 627 36,000  Level FlightAware
10:05PM 47.6190 -52.8040 78° East 545 627 36,000  Level FlightAware
10:06PM 47.6410 -52.6570 77° East 544 626 36,000  Level FlightAware
10:07PM 47.6650 -52.4980 77° East 543 625 36,000  Level FlightAware
10:08PM 47.6850 -52.3550 78° East 541 623 36,000  Level FlightAware
10:08PM 47.7090 -52.1870 78° East 540 621 36,000  Level FlightAware
10:09PM 47.7300 -52.0390 78° East 539 620 36,000  Level FlightAware
10:10PM 47.7520 -51.8870 78° East 540 621 36,000  Level FlightAware
10:10PM 47.7730 -51.7380 78° East 540 621 36,000  Level FlightAware
10:11PM 47.7930 -51.5930 78° East 538 619 36,000  Level FlightAware
10:12PM 47.8230 -51.3740 78° East 539 620 36,000  Level FlightAware
10:13PM 47.8640 -51.0650 79° East 538 619 36,000  Level FlightAware
10:14PM 47.8900 -50.8690 79° East 536 617 36,000  Level FlightAware
10:15PM 47.9100 -50.7170 79° East 534 615 36,000  Level FlightAware
10:16PM 47.9350 -50.5180 79° East 536 617 36,000  Level FlightAware
10:17PM 47.9590 -50.3310 79° East 537 618 36,000  Level FlightAware
10:18PM 47.9770 -50.1890 79° East 538 619 36,000  Level FlightAware
10:18PM 47.9940 -50.0510 80° East 534 615 36,000  Level FlightAware
10:19PM 48.0210 -49.8800 77° East 534 615 36,000  Level FlightAware
10:20PM 48.0400 -49.7570 77° East 534 615 36,000  Level FlightAware
10:20PM 48.0590 -49.6350 77° East 534 615 36,000  Level FlightAware
10:21PM 48.0770 -49.5120 78° East 534 615 36,000  Level FlightAware
10:22PM 48.0960 -49.3900 77° East 534 615 36,000  Level FlightAware
10:23PM 48.1200 -49.2370 77° East 534 615 36,000  Level FlightAware
10:23PM 48.1390 -49.1140 77° East 534 615 36,000  Level FlightAware
10:24PM 48.1580 -48.9910 77° East 534 615 36,000  Level FlightAware
10:25PM 48.1770 -48.8690 77° East 534 615 36,000  Level FlightAware
10:25PM 48.1950 -48.7460 78° East 534 615 36,000  Level FlightAware
10:26PM 48.2190 -48.5920 77° East 534 615 36,000  Level FlightAware
10:27PM 48.2380 -48.4690 77° East 534 615 36,000  Level FlightAware
10:27PM 48.2570 -48.3470 77° East 534 615 36,000  Level FlightAware
10:28PM 48.2760 -48.2240 77° East 534 615 36,000  Level FlightAware
10:29PM 48.5000 -47.8167 77° East 530 610 36,000  Level Gander Center
10:30PM 48.5667 -47.4833 73° East 530 610 36,000  Level Gander Center
10:31PM 48.5833 -47.3833 76° East 540 621 36,000  Level Gander Center
10:32PM 48.6333 -47.1667 71° East 540 621 36,000  Level Gander Center
10:33PM 48.6833 -46.9833 67° East 540 621 36,000  Level Gander Center
10:34PM 48.7333 -46.7500 72° East 540 621 36,000  Level Gander Center
10:36PM 48.7965 -46.4723 71° East  Level FlightAware Approximate
10:43PM 49.1201 -44.9837 73° East  Level FlightAware Approximate
10:44PM 49.1632 -44.7687 73° East  Level FlightAware Approximate
10:45PM 49.2059 -44.5534 73° East  Level FlightAware Approximate
10:46PM 49.2482 -44.3377 73° East  Level FlightAware Approximate
10:47PM 49.2901 -44.1216 73° East  Level FlightAware Approximate
10:48PM 49.3315 -43.9051 74° East  Level FlightAware Approximate
10:49PM 49.3726 -43.6883 74° East  Level FlightAware Approximate
10:50PM 49.4133 -43.4711 74° East  Level FlightAware Approximate
10:51PM 49.4535 -43.2536 74° East  Level FlightAware Approximate
10:52PM 49.4934 -43.0357 74° East  Level FlightAware Approximate
10:53PM 49.5328 -42.8175 74° East  Level FlightAware Approximate
10:54PM 49.5718 -42.5989 75° East  Level FlightAware Approximate
10:55PM 49.6105 -42.3800 75° East  Level FlightAware Approximate
10:56PM 49.6487 -42.1607 75° East  Level FlightAware Approximate
10:57PM 49.6865 -41.9411 75° East  Level FlightAware Approximate
10:58PM 49.7238 -41.7211 75° East  Level FlightAware Approximate
10:59PM 49.7608 -41.5008 75° East  Level FlightAware Approximate
11:00PM 49.7973 -41.2802 76° East  Level FlightAware Approximate
11:01PM 49.8334 -41.0592 76° East  Level FlightAware Approximate
11:02PM 49.8691 -40.8379 76° East  Level FlightAware Approximate
11:03PM 49.9044 -40.6163 76° East  Level FlightAware Approximate
11:04PM 49.9392 -40.3943 76° East  Level FlightAware Approximate
11:05PM 49.9737 -40.1721 76° East  Level FlightAware Approximate
11:06PM 50.0121 -39.9521 69° East  Level FlightAware Approximate
11:07PM 50.0656 -39.7393 69° East  Level FlightAware Approximate
11:08PM 50.1186 -39.5260 69° East  Level FlightAware Approximate
11:09PM 50.1713 -39.3122 69° East  Level FlightAware Approximate
11:10PM 50.2236 -39.0980 69° East  Level FlightAware Approximate
11:11PM 50.2755 -38.8832 69° East  Level FlightAware Approximate
11:12PM 50.3270 -38.6680 69° East  Level FlightAware Approximate
11:13PM 50.3781 -38.4524 70° East  Level FlightAware Approximate
11:14PM 50.4288 -38.2363 70° East  Level FlightAware Approximate
11:15PM 50.4791 -38.0197 70° East  Level FlightAware Approximate
11:16PM 50.5290 -37.8027 70° East  Level FlightAware Approximate
11:17PM 50.5784 -37.5852 70° East  Level FlightAware Approximate
11:18PM 50.6275 -37.3672 70° East  Level FlightAware Approximate
11:19PM 50.6762 -37.1488 71° East  Level FlightAware Approximate
11:20PM 50.7245 -36.9300 71° East  Level FlightAware Approximate
11:21PM 50.7723 -36.7107 71° East  Level FlightAware Approximate
11:22PM 50.8198 -36.4909 71° East  Level FlightAware Approximate
11:23PM 50.8668 -36.2707 71° East  Level FlightAware Approximate
11:24PM 50.9134 -36.0501 71° East  Level FlightAware Approximate
11:25PM 50.9596 -35.8290 72° East  Level FlightAware Approximate
11:26PM 51.0054 -35.6075 72° East  Level FlightAware Approximate
11:27PM 51.0508 -35.3855 72° East  Level FlightAware Approximate
11:28PM 51.0957 -35.1631 72° East  Level FlightAware Approximate
11:29PM 51.1402 -34.9403 72° East  Level FlightAware Approximate
11:30PM 51.1843 -34.7171 72° East  Level FlightAware Approximate
11:31PM 51.2280 -34.4934 73° East  Level FlightAware Approximate
11:32PM 51.2712 -34.2693 73° East  Level FlightAware Approximate
11:33PM 51.3140 -34.0448 73° East  Level FlightAware Approximate
11:34PM 51.3564 -33.8199 73° East  Level FlightAware Approximate
11:35PM 51.3984 -33.5945 73° East  Level FlightAware Approximate
11:36PM 51.4399 -33.3688 73° East  Level FlightAware Approximate
11:37PM 51.4810 -33.1426 74° East  Level FlightAware Approximate
11:38PM 51.5216 -32.9160 74° East  Level FlightAware Approximate
11:39PM 51.5618 -32.6890 74° East  Level FlightAware Approximate
11:40PM 51.6016 -32.4617 74° East  Level FlightAware Approximate
11:41PM 51.6409 -32.2339 74° East  Level FlightAware Approximate
11:42PM 51.6798 -32.0057 75° East  Level FlightAware Approximate
11:43PM 51.7183 -31.7772 75° East  Level FlightAware Approximate
11:44PM 51.7562 -31.5483 75° East  Level FlightAware Approximate
11:45PM 51.7938 -31.3189 75° East  Level FlightAware Approximate
11:46PM 51.8309 -31.0892 75° East  Level FlightAware Approximate
11:47PM 51.8676 -30.8592 75° East  Level FlightAware Approximate
11:48PM 51.9038 -30.6287 76° East  Level FlightAware Approximate
11:49PM 51.9395 -30.3979 76° East  Level FlightAware Approximate
11:50PM 51.9749 -30.1667 76° East  Level FlightAware Approximate
11:51PM 52.0093 -29.9350 77° East  Level FlightAware Approximate
11:52PM 52.0422 -29.7025 77° East  Level FlightAware Approximate
11:53PM 52.0746 -29.4697 77° East  Level FlightAware Approximate
11:54PM 52.1066 -29.2365 77° East  Level FlightAware Approximate
11:55PM 52.1381 -29.0030 78° East  Level FlightAware Approximate
11:56PM 52.1692 -28.7692 78° East  Level FlightAware Approximate
11:57PM 52.1998 -28.5351 78° East  Level FlightAware Approximate
11:58PM 52.2299 -28.3006 78° East  Level FlightAware Approximate
11:59PM 52.2596 -28.0658 78° East  Level FlightAware Approximate
12:00AM 52.2888 -27.8308 78° East  Level FlightAware Approximate
12:01AM 52.3175 -27.5954 79° East  Level FlightAware Approximate
12:02AM 52.3458 -27.3597 79° East  Level FlightAware Approximate
12:03AM 52.3736 -27.1237 79° East  Level FlightAware Approximate
12:04AM 52.4009 -26.8874 79° East  Level FlightAware Approximate
12:05AM 52.4278 -26.6508 79° East  Level FlightAware Approximate
12:06AM 52.4542 -26.4139 80° East  Level FlightAware Approximate
12:07AM 52.4804 -26.1769 80° East  Level FlightAware Approximate
12:08AM 52.5066 -25.9397 80° East  Level FlightAware Approximate
12:09AM 52.5323 -25.7022 80° East  Level FlightAware Approximate
12:10AM 52.5575 -25.4644 80° East  Level FlightAware Approximate
12:11AM 52.5822 -25.2264 80° East  Level FlightAware Approximate
12:12AM 52.6065 -24.9881 80° East  Level FlightAware Approximate
12:13AM 52.6303 -24.7495 81° East  Level FlightAware Approximate
12:14AM 52.6536 -24.5107 81° East  Level FlightAware Approximate
12:15AM 52.6764 -24.2716 81° East  Level FlightAware Approximate
12:16AM 52.6987 -24.0322 81° East  Level FlightAware Approximate
12:17AM 52.7206 -23.7927 81° East  Level FlightAware Approximate
12:18AM 52.7419 -23.5529 82° East  Level FlightAware Approximate
12:19AM 52.7628 -23.3128 82° East  Level FlightAware Approximate
12:20AM 52.7832 -23.0725 82° East  Level FlightAware Approximate
12:21AM 52.8031 -22.8321 82° East  Level FlightAware Approximate
12:22AM 52.8226 -22.5914 82° East  Level FlightAware Approximate
12:23AM 52.8415 -22.3504 82° East  Level FlightAware Approximate
12:24AM 52.8600 -22.1093 83° East  Level FlightAware Approximate
12:25AM 52.8779 -21.8680 83° East  Level FlightAware Approximate
12:26AM 52.8954 -21.6264 83° East  Level FlightAware Approximate
12:27AM 52.9124 -21.3847 83° East  Level FlightAware Approximate
12:28AM 52.9289 -21.1428 83° East  Level FlightAware Approximate
12:29AM 52.9449 -20.9007 84° East  Level FlightAware Approximate
12:30AM 52.9604 -20.6585 84° East  Level FlightAware Approximate
12:31AM 52.9754 -20.4160 84° East  Level FlightAware Approximate
12:32AM 52.9899 -20.1734 84° East  Level FlightAware Approximate
12:33AM 52.9998 -19.9304 90° East  Level FlightAware Approximate
12:34AM 52.9989 -19.6865 90° East  Level FlightAware Approximate
12:35AM 52.9974 -19.4426 90° East  Level FlightAware Approximate
12:36AM 52.9954 -19.1988 91° East  Level FlightAware Approximate
12:37AM 52.9930 -18.9549 91° East  Level FlightAware Approximate
12:38AM 52.9901 -18.7111 91° East  Level FlightAware Approximate
12:39AM 52.9866 -18.4674 91° East  Level FlightAware Approximate
12:40AM 52.9827 -18.2236 91° East  Level FlightAware Approximate
12:41AM 52.9782 -17.9800 92° East  Level FlightAware Approximate
12:42AM 52.9733 -17.7364 92° East  Level FlightAware Approximate
12:43AM 52.9678 -17.4928 92° East  Level FlightAware Approximate
12:44AM 52.9619 -17.2493 92° East  Level FlightAware Approximate
12:45AM 52.9554 -17.0059 92° East  Level FlightAware Approximate
12:46AM 52.9485 -16.7625 93° East  Level FlightAware Approximate
12:47AM 52.9411 -16.5193 93° East  Level FlightAware Approximate
12:48AM 52.9331 -16.2761 93° East  Level FlightAware Approximate
12:49AM 52.9247 -16.0330 93° East  Level FlightAware Approximate
12:50AM 52.9158 -15.7900 93° East  Level FlightAware Approximate
12:51AM 52.9064 -15.5471 94° East  Level FlightAware Approximate
12:52AM 52.8965 -15.3043 94° East  Level FlightAware Approximate
12:53AM 52.8861 -15.0616 94° East  Level FlightAware Approximate
12:54AM 52.8761 -14.8189 94° East  Level FlightAware Approximate
12:55AM 52.8660 -14.5764 94° East  Level FlightAware Approximate
12:56AM 52.8554 -14.3339 94° East  Level FlightAware Approximate
12:57AM 52.8444 -14.0915 94° East  Level FlightAware Approximate
12:57AM 52.8280 -12.4420 94° East 563 648 36,000  Level FlightAware
12:57AM 52.8160 -12.2950 98° East 564 649 36,000  Level FlightAware
12:58AM 52.7980 -12.0720 98° East 564 649 36,000  Level FlightAware
12:59AM 52.7860 -11.9240 98° East 564 649 36,000  Level FlightAware
12:59AM 52.7680 -11.7120 98° East 564 649 36,000  Level FlightAware
01:00AM 52.7540 -11.5570 98° East 563 648 36,000  Level FlightAware
01:01AM 52.7370 -11.3650 98° East 563 648 36,000  Level FlightAware
01:02AM 52.7170 -11.1390 98° East 562 647 36,000  Level FlightAware
01:02AM 52.7030 -10.9870 99° East 562 647 36,000  Level FlightAware
01:03AM 52.6840 -10.7830 99° East 561 646 36,000  Level FlightAware
01:04AM 52.6680 -10.6130 99° East 560 644 36,000  Level FlightAware
01:04AM 52.6500 -10.4240 99° East 559 643 36,000  Level FlightAware
01:05AM 52.6330 -10.2490 99° East 558 642 36,000 -300 Level FlightAware
01:08AM 52.5821 -9.6994 98° East  Level FlightAware Approximate
01:09AM 52.5592 -9.4609 99° East  Level FlightAware Approximate
01:10AM 52.5358 -9.2226 99° East  Level FlightAware Approximate
01:10AM 52.4977 -8.9721 99° East 478 550 34,500  Level FlightAware UK
01:11AM 52.4910 -8.9004 99° East 478 550 34,400 -180 Descending FlightAware UK
01:11AM 52.4829 -8.8262 100° East 478 550 34,400  Level FlightAware UK
01:11AM 52.4746 -8.7517 100° East 478 550 34,400  Level FlightAware UK
01:11AM 52.4661 -8.6775 101° East 478 550 34,400  Level FlightAware UK
01:12AM 52.4578 -8.6028 100° East 478 550 34,400  Level FlightAware UK
01:12AM 52.4494 -8.5281 100° East 478 550 34,400 120 Level FlightAware UK
01:12AM 52.4407 -8.4537 101° East 478 550 34,500 120 Climbing FlightAware UK
01:13AM 52.4322 -8.3796 101° East 478 550 34,500  Level FlightAware UK
01:13AM 52.4234 -8.3047 101° East 478 550 34,500  Level FlightAware UK
01:13AM 52.4147 -8.2305 101° East 478 550 34,500  Level FlightAware UK
01:14AM 52.4059 -8.1564 101° East 480 552 34,500  Level FlightAware UK
01:14AM 52.3972 -8.0826 101° East 478 550 34,500  Level FlightAware UK
01:14AM 52.3889 -8.0082 100° East 476 548 34,500  Level FlightAware UK
01:14AM 52.3802 -7.9340 101° East 478 550 34,500  Level FlightAware UK
01:15AM 52.3713 -7.8599 101° East 478 550 34,500 2,700 Level FlightAware UK
01:15AM 52.3650 -7.8130 101° East 555 639 36,000  Climbing FlightAware
01:15AM 52.3623 -7.7857 101° East 478 550 34,500 -6,000 Descending FlightAware UK
01:15AM 52.3563 -7.7364 101° East 478 550 34,500  Level FlightAware UK
01:16AM 52.3472 -7.6625 101° East 480 552 34,500 3,000 Level FlightAware UK
01:16AM 52.3430 -7.6300 101° East 554 638 36,000  Climbing FlightAware
01:16AM 52.3321 -7.5390 101° East 480 552 34,500  Descending FlightAware UK
01:16AM 52.3270 -7.5050 101° East 553 636 36,000  Climbing FlightAware
01:16AM 52.3229 -7.4644 101° East 476 548 34,500 -5,040 Descending FlightAware UK
01:17AM 52.3168 -7.4153 101° East 476 548 34,500  Level FlightAware UK
01:17AM 52.3076 -7.3418 102° East 478 550 34,500 2,400 Level FlightAware UK
01:17AM 52.2990 -7.2770 102° East 555 639 36,000  Climbing FlightAware
01:17AM 52.2890 -7.1946 102° East 478 550 34,500 -2,580 Descending FlightAware UK
01:18AM 52.2797 -7.1210 102° East 478 550 34,500 3,900 Level FlightAware UK
01:18AM 52.2790 -7.1200 102° East 554 638 36,000  Climbing FlightAware
01:18AM 52.2671 -7.0231 102° East 478 550 34,500 -2,460 Descending FlightAware UK
01:18AM 52.2578 -6.9496 102° East 478 550 34,500 4,260 Level FlightAware UK
01:18AM 52.2590 -6.9620 102° East 553 636 36,000  Climbing FlightAware
01:19AM 52.2483 -6.8762 102° East 478 550 34,500 -2,760 Descending FlightAware UK
01:19AM 52.2389 -6.8030 102° East 480 552 34,500 3,000 Level FlightAware UK
01:19AM 52.2340 -6.7660 102° East 553 636 36,000  Climbing FlightAware
01:20AM 52.2227 -6.6813 102° East 478 550 34,500 -2,520 Descending FlightAware UK
01:20AM 52.2131 -6.6083 102° East 478 550 34,500 4,080 Level FlightAware UK
01:20AM 52.2130 -6.6070 102° East 553 636 36,000  Climbing FlightAware
01:20AM 52.2003 -6.5110 102° East 478 550 34,500 -2,400 Descending FlightAware UK
01:21AM 52.1906 -6.4380 102° East 478 550 34,500 3,600 Level FlightAware UK
01:21AM 52.1880 -6.4230 102° East 553 636 36,000  Climbing FlightAware
01:21AM 52.1776 -6.3406 102° East 478 550 34,500 -2,580 Descending FlightAware UK
01:21AM 52.1672 -6.2678 103° East 478 550 34,500 4,980 Level FlightAware UK
01:21AM 52.1700 -6.2920 103° East 553 636 36,000  Climbing FlightAware
01:22AM 52.1562 -6.1953 103° East 480 552 34,500 -2,520 Descending FlightAware UK
01:22AM 52.1449 -6.1220 104° East 480 552 34,500  Level FlightAware UK
01:22AM 52.1339 -6.0497 104° East 478 550 34,500 3,720 Level FlightAware UK
01:22AM 52.1320 -6.0390 104° East 547 629 36,000  Climbing FlightAware
01:23AM 52.1194 -5.9538 104° East 474 545 34,500 -2,520 Descending FlightAware UK
01:23AM 52.1087 -5.8822 104° East 474 545 34,500 4,080 Level FlightAware UK
01:23AM 52.1100 -5.8930 104° East 544 626 36,000  Climbing FlightAware
01:23AM 52.0943 -5.7873 104° East 474 545 34,500 -2,400 Descending FlightAware UK
01:24AM 52.0835 -5.7163 104° East 474 545 34,500 3,600 Level FlightAware UK
01:24AM 52.0830 -5.7140 104° East 542 624 36,000  Climbing FlightAware
01:24AM 52.0692 -5.6210 104° East 474 545 34,500 -2,580 Descending FlightAware UK
01:24AM 52.0585 -5.5502 104° East 474 545 34,500 3,900 Level FlightAware UK
01:24AM 52.0590 -5.5530 104° East 541 623 36,000  Climbing FlightAware
01:25AM 52.0442 -5.4559 104° East 474 545 34,500 -2,640 Descending FlightAware UK
01:25AM 52.0331 -5.3855 104° East 474 545 34,400 4,260 Descending FlightAware UK
01:25AM 52.0340 -5.3980 104° East 537 618 36,000 300 Climbing FlightAware
01:25AM 52.0171 -5.3177 104° East 472 543 34,500 -2,760 Descending FlightAware UK
01:26AM 52.0023 -5.2493 109° East 472 543 34,500 3,000 Level FlightAware UK
01:26AM 51.9950 -5.2150 109° East 538 619 36,000 -240 Climbing FlightAware
01:26AM 51.9772 -5.1357 109° East 472 543 34,400 -2,520 Descending FlightAware UK
01:26AM 51.9624 -5.0677 109° East 472 543 34,500 3,540 Climbing FlightAware UK
01:26AM 51.9570 -5.0430 109° East 537 618 36,000  Climbing FlightAware
01:27AM 51.9422 -4.9770 109° East 472 543 34,500 -2,760 Descending FlightAware UK
01:27AM 51.9272 -4.9092 110° East 472 543 34,500 4,500 Level FlightAware UK
01:27AM 51.9280 -4.9120 110° East 536 617 36,000  Climbing FlightAware
01:27AM 51.9125 -4.8413 110° East 472 543 34,500 -2,700 Descending FlightAware UK
01:28AM 51.8974 -4.7736 110° East 472 543 34,500 3,060 Level FlightAware UK
01:28AM 51.8900 -4.7410 110° East 535 616 36,000  Climbing FlightAware
01:28AM 51.8721 -4.6602 110° East 474 545 34,500 -2,400 Descending FlightAware UK
01:28AM 51.8569 -4.5928 110° East 472 543 34,500 3,600 Level FlightAware UK
01:29AM 51.8520 -4.5730 110° East 533 613 36,000  Climbing FlightAware
01:29AM 51.8367 -4.5031 110° East 474 545 34,500 -2,580 Descending FlightAware UK
01:29AM 51.8216 -4.4361 110° East 474 545 34,500 3,900 Level FlightAware UK
01:29AM 51.8190 -4.4260 110° East 531 611 36,000  Climbing FlightAware
01:30AM 51.8016 -4.3469 110° East 472 543 34,500 -2,460 Descending FlightAware UK
01:30AM 51.7865 -4.2801 110° East 472 543 34,500 3,420 Level FlightAware UK
01:30AM 51.7830 -4.2670 110° East 529 609 36,000  Climbing FlightAware
01:30AM 51.7659 -4.1908 110° East 472 543 34,500 -2,700 Descending FlightAware UK
01:31AM 51.7507 -4.1244 110° East 470 541 34,500 3,720 Level FlightAware UK
01:31AM 51.7500 -4.1230 110° East 526 605 36,000 4,500 Climbing FlightAware
01:31AM 51.7338 -4.0524 110° East 530 610 36,000 -3,000 Level FlightAware ADS-B
01:31AM 51.7197 -3.9918 110° East 472 543 34,500 -2,880 Descending FlightAware UK
01:31AM 51.7016 -3.9272 114° Southeast 470 541 34,400 3,120 Descending FlightAware UK
01:32AM 51.6948 -3.9042 114° Southeast 529 609 35,800 -1,260 Climbing FlightAware ADS-B
01:32AM 51.6768 -3.8415 114° Southeast 470 541 33,900 -1,200 Descending FlightAware UK
01:32AM 51.6690 -3.8150 114° Southeast 532 612 35,200 2,820 Climbing FlightAware
01:32AM 51.6565 -3.7727 115° Southeast 532 612 34,800 -6,300 Descending FlightAware ADS-B
01:32AM 51.6394 -3.7135 115° Southeast 464 534 32,800 -1,440 Descending FlightAware UK
01:33AM 51.6290 -3.6810 115° Southeast 523 602 34,000 -2,220 Climbing FlightAware
01:33AM 51.6018 -3.5887 115° Southeast 454 522 31,500 -5,040 Descending FlightAware UK
01:33AM 51.5828 -3.5260 116° Southeast 452 520 30,900 3,120 Descending FlightAware UK
01:33AM 51.5860 -3.5370 116° Southeast 515 593 32,600 -2,040 Climbing FlightAware
01:34AM 51.5640 -3.4649 116° Southeast 458 527 30,300 -5,280 Descending FlightAware UK
01:34AM 51.5443 -3.4020 117° Southeast 458 527 29,700 1,380 Descending FlightAware UK
01:34AM 51.5360 -3.3780 117° Southeast 520 598 31,000 -2,040 Climbing FlightAware
01:34AM 51.5128 -3.2966 117° Southeast 460 529 28,700 -2,280 Descending FlightAware UK
01:35AM 51.5006 -3.2178 117° Southeast 524 603 29,500 1,200 Climbing FlightAware ADS-B
01:35AM 51.4975 -3.1873 99° East 510 587 29,300 -4,620 Descending FlightAware ADS-B
01:35AM 51.4911 -3.1188 99° East 444 511 27,500 -840 Descending FlightAware UK
01:35AM 51.4869 -3.0779 99° East 487 560 28,900 -1,020 Climbing FlightAware ADS-B
01:36AM 51.4805 -3.0138 99° East 420 483 27,000 -1,380 Descending FlightAware UK
01:36AM 51.4757 -2.9707 99° East 466 536 28,200 -1,380 Climbing FlightAware ADS-B
01:36AM 51.4674 -2.8922 99° East 402 463 26,200 -1,320 Descending FlightAware UK
01:36AM 51.4643 -2.8657 99° East 445 512 27,500 -2,040 Climbing FlightAware ADS-B
01:37AM 51.4590 -2.8157 99° East 394 453 25,400 -2,340 Descending FlightAware UK
01:37AM 51.4538 -2.7674 99° East 433 498 26,300 -2,340 Climbing FlightAware ADS-B
01:37AM 51.4473 -2.7024 99° East 388 447 24,000 -2,220 Descending FlightAware UK
01:38AM 51.4434 -2.6635 99° East 422 486 25,100 -2,220 Climbing FlightAware ADS-B
01:38AM 51.4381 -2.6098 99° East 382 440 22,900 -2,160 Descending FlightAware UK
01:38AM 51.4341 -2.5717 99° East 412 474 24,000 -2,220 Climbing FlightAware ADS-B
01:38AM 51.4290 -2.5204 99° East 374 430 21,800 -2,220 Descending FlightAware UK
01:39AM 51.4249 -2.4810 99° East 404 465 22,900 -2,220 Climbing FlightAware ADS-B
01:39AM 51.4201 -2.4314 99° East 366 421 20,700 -2,160 Descending FlightAware UK
01:39AM 51.4169 -2.3915 99° East 398 458 21,800 -2,160 Climbing FlightAware ADS-B
01:39AM 51.4128 -2.3437 99° East 360 414 19,600 -2,160 Descending FlightAware UK
01:40AM 51.4093 -2.2999 99° East 392 451 20,700 -2,100 Climbing FlightAware ADS-B
01:40AM 51.4046 -2.2411 99° East 352 405 18,400 -1,980 Descending FlightAware UK
01:40AM 51.4019 -2.2128 99° East 390 449 19,700 540 Climbing FlightAware ADS-B
01:41AM 51.3936 -2.1251 99° East 389 448 18,800 -3,480 Descending FlightAware ADS-B
01:41AM 51.3885 -2.0704 99° East 348 400 16,800 -1,440 Descending FlightAware UK
01:41AM 51.3853 -2.0395 99° East 384 442 18,100 -1,200 Climbing FlightAware ADS-B
01:41AM 51.3803 -1.9864 99° East 336 387 16,200 -1,020 Descending FlightAware UK
01:42AM 51.3770 -1.9562 99° East 373 429 17,600 -1,020 Climbing FlightAware ADS-B
01:42AM 51.3721 -1.9062 99° East 328 377 15,700 -1,200 Descending FlightAware UK
01:42AM 51.3687 -1.8752 99° East 364 419 17,000 -1,440 Climbing FlightAware ADS-B
01:42AM 51.3638 -1.8263 99° East 326 375 15,000 -1,500 Descending FlightAware UK
01:43AM 51.3598 -1.7893 99° East 357 411 16,200 -1,620 Climbing FlightAware ADS-B
01:43AM 51.3558 -1.7483 99° East 320 368 14,200 -1,500 Descending FlightAware UK
01:43AM 51.3520 -1.7170 99° East 352 405 15,400 2,820 Climbing FlightAware
01:43AM 51.3503 -1.6975 98° East 351 404 15,200 -1,740 Descending FlightAware ADS-B
01:44AM 51.3421 -1.6195 100° East 350 403 14,400 -3,300 Descending FlightAware ADS-B
01:44AM 51.3364 -1.5655 100° East 316 364 12,400 -780 Descending FlightAware UK
01:44AM 51.3337 -1.5411 100° East 342 394 14,000 2,340 Climbing FlightAware ADS-B
01:45AM 51.3255 -1.4642 100° East 340 391 14,000  Level FlightAware ADS-B
01:45AM 51.3175 -1.3888 100° East 342 394 14,000 -1,860 Level FlightAware ADS-B
01:46AM 51.3126 -1.3422 100° East 312 359 12,500  Descending FlightAware UK
01:46AM 51.3092 -1.3138 100° East 339 390 14,000 2,100 Climbing FlightAware ADS-B
01:46AM 51.3009 -1.2394 100° East 339 390 14,000  Level FlightAware ADS-B
01:47AM 51.2926 -1.1648 100° East 341 392 14,000 -1,680 Level FlightAware ADS-B
01:47AM 51.2862 -1.1055 100° East 314 361 12,500  Descending FlightAware UK
01:47AM 51.2839 -1.0863 100° East 340 391 14,000  Climbing FlightAware ADS-B
01:48AM 51.2779 -1.0309 100° East 310 357 12,500  Descending FlightAware UK
01:48AM 51.2756 -1.0120 100° East 340 391 14,000  Climbing FlightAware ADS-B
01:48AM 51.2712 -0.9718 100° East 314 361 12,500  Descending FlightAware UK
01:48AM 51.2674 -0.9381 100° East 339 390 14,000  Climbing FlightAware ADS-B
01:49AM 51.2629 -0.8975 100° East 312 359 12,500  Descending FlightAware UK
01:49AM 51.2592 -0.8641 100° East 335 386 14,000 4,200 Climbing FlightAware ADS-B
01:49AM 51.2585 -0.8496 94° East 329 379 13,900 -600 Descending FlightAware ADS-B
01:49AM 51.2585 -0.8398 90° East 325 374 13,900 -480 Level FlightAware ADS-B
01:49AM 51.2597 -0.8195 85° East 320 368 13,800 -780 Descending FlightAware ADS-B
01:50AM 51.2685 -0.7524 78° East 304 350 13,400 -2,640 Descending FlightAware ADS-B
01:50AM 51.2748 -0.7060 78° East 272 313 11,600 -840 Descending FlightAware UK
01:50AM 51.2769 -0.6880 78° East 294 338 13,000 -1,260 Climbing FlightAware ADS-B
01:50AM 51.2811 -0.6555 78° East 270 311 11,100 -1,200 Descending FlightAware UK
01:51AM 51.2849 -0.6233 78° East 292 336 12,400 1,380 Climbing FlightAware ADS-B
01:51AM 51.2903 -0.5775 79° East 289 333 12,000 -3,480 Descending FlightAware ADS-B
01:51AM 51.2944 -0.5419 79° East 268 308 10,200 -960 Descending FlightAware UK
01:51AM 51.2963 -0.5256 79° East 285 328 11,600 -1,020 Climbing FlightAware ADS-B
01:52AM 51.3001 -0.4924 79° East 260 299 9,800 -1,020 Descending FlightAware UK
01:52AM 51.3032 -0.4642 79° East 282 325 11,100 2,460 Climbing FlightAware ADS-B
01:52AM 51.3064 -0.4361 80° East 278 320 11,000 -300 Descending FlightAware ADS-B
01:52AM 51.3090 -0.4201 75° East 278 320 11,000 -3,960 Level FlightAware ADS-B
01:53AM 51.3158 -0.3848 75° East 254 292 9,300 -960 Descending FlightAware UK
01:53AM 51.3211 -0.3584 75° East 273 314 10,500 -1,440 Climbing FlightAware ADS-B
01:53AM 51.3274 -0.3270 75° East 256 295 8,600 -1,380 Descending FlightAware UK
01:53AM 51.3299 -0.3152 75° East 274 315 10,000 2,160 Climbing FlightAware ADS-B
01:54AM 51.3362 -0.2848 72° East 271 312 9,400 -2,460 Descending FlightAware ADS-B
01:54AM 51.3424 -0.2548 72° East 271 312 8,700 -2,520 Descending FlightAware ADS-B
01:54AM 51.3479 -0.2260 73° East 266 306 8,100 -2,640 Descending FlightAware ADS-B
01:54AM 51.3531 -0.1977 74° East 264 304 7,400 -2,340 Descending FlightAware ADS-B
01:55AM 51.3584 -0.1688 74° East 266 306 6,900 -1,800 Descending FlightAware ADS-B
01:55AM 51.3636 -0.1402 74° East 265 305 6,500 -1,440 Descending FlightAware ADS-B
01:55AM 51.3688 -0.1119 74° East 263 303 6,200 -1,320 Descending FlightAware ADS-B
01:55AM 51.3716 -0.0976 73° East 260 299 6,000 -1,200 Descending FlightAware ADS-B
01:55AM 51.3751 -0.0848 66° East 254 292 5,900 -900 Descending FlightAware ADS-B
01:55AM 51.3784 -0.0742 63° Northeast 250 288 5,800 -1,080 Descending FlightAware ADS-B
01:56AM 51.3844 -0.0579 59° Northeast 242 278 5,600 -900 Descending FlightAware ADS-B
01:56AM 51.3872 -0.0520 53° Northeast 234 269 5,600 -720 Level FlightAware ADS-B
01:56AM 51.3911 -0.0462 43° Northeast 228 262 5,500 -540 Descending FlightAware ADS-B
01:56AM 51.3972 -0.0404 31° Northeast 218 251 5,500 -600 Level FlightAware ADS-B
01:56AM 51.4003 -0.0386 19° North 208 239 5,400 -780 Descending FlightAware ADS-B
01:56AM 51.4039 -0.0374 12° North 203 234 5,400  Level FlightAware ADS-B
01:56AM 51.4085 -0.0366 North 197 227 5,400 -480 Level FlightAware ADS-B
01:56AM 51.4162 -0.0360 North 190 219 5,300 -780 Descending FlightAware ADS-B
01:56AM 51.4291 -0.0355 North 183 211 5,100 -660 Descending FlightAware ADS-B
01:57AM 51.4405 -0.0351 North 183 211 5,000 -420 Descending FlightAware ADS-B
01:57AM 51.4432 -0.0356 354° North 181 208 5,000 -720 Level FlightAware ADS-B
01:57AM 51.4478 -0.0376 344° North 178 205 4,900 -600 Descending FlightAware ADS-B
01:57AM 51.4515 -0.0412 329° Northwest 180 207 4,900 -720 Level FlightAware ADS-B
01:57AM 51.4536 -0.0443 317° Northwest 178 205 4,800 -900 Descending FlightAware ADS-B
01:57AM 51.4554 -0.0479 309° West 178 205 4,800 -1,020 Level FlightAware ADS-B
01:57AM 51.4567 -0.0512 302° West 178 205 4,700 -1,020 Descending FlightAware ADS-B
01:57AM 51.4599 -0.0607 299° West 179 206 4,600 -720 Descending FlightAware ADS-B
01:58AM 51.4663 -0.0812 297° West 181 208 4,400 -780 Descending FlightAware ADS-B
01:58AM 51.4719 -0.0984 298° West 183 211 4,200 -840 Descending FlightAware ADS-B
01:58AM 51.4753 -0.1094 296° West 182 209 4,100 -780 Descending FlightAware ADS-B
01:58AM 51.4769 -0.1182 286° West 181 208 4,000 -960 Descending FlightAware ADS-B
01:58AM 51.4776 -0.1262 278° West 180 207 3,900 -1,200 Descending FlightAware ADS-B
01:58AM 51.4779 -0.1381 272° West 178 205 3,700 -1,080 Descending FlightAware ADS-B
01:59AM 51.4781 -0.1637 271° West 174 200 3,400 -1,020 Descending FlightAware ADS-B
01:59AM 51.4781 -0.1845 270° West 173 199 3,100 -1,140 Descending FlightAware ADS-B
01:59AM 51.4781 -0.2047 270° West 169 194 2,800 -1,020 Descending FlightAware ADS-B
01:59AM 51.4781 -0.2287 270° West 164 189 2,500 -900 Descending FlightAware ADS-B
02:00AM 51.4781 -0.2548 270° West 163 188 2,200 -900 Descending FlightAware ADS-B
02:00AM 51.4781 -0.2789 270° West 160 184 1,900 -3,420 Descending FlightAware ADS-B
02:00AM 51.4780 -0.2986 270° West 164 189 100 -780 Descending FlightAware UK
02:01AM 51.4780 -0.3130 270° West 155 178 1,500 1,500 Climbing FlightAware
02:01AM 51.4780 -0.3390 270° West 154 177 1,100 -780 Descending FlightAware
02:02AM 51.4780 -0.3690 270° West 128 147 800 -720 Descending FlightAware
02:02AM 51.4780 -0.3890 270° West 129 148 500 -420 Descending FlightAware
02:03AM 51.4780 -0.4260 270° West 128 147 400 -180 Descending FlightAware